Terminal Aerodrome Forecast
Issued by NWS

Home | Current Version | Previous Version | Text Only | Print | Product List | Glossary On
Versions: 1 2 3 4 5 6 7 8 9 10 11 12
034
FTPA31 PHFO 211138
TAFHMK
TAF
PHMK 211138Z 2112/2212 05010G18KT P6SM VCSH SCT025 BKN035
      TEMPO 2112/2116 -SHRA SCT015 BKN025
     FM212000 05014G22KT P6SM VCSH SCT025 BKN040
     FM220400 04010G18KT P6SM SCT025 SCT040
     FM220800 04008KT P6SM SCT025 SCT040=

USA.gov is the U.S. government's official web portal to all federal, state and local government web resources and services.